Saturday, October 25, 2014
02:51 UTC
  |  Log In   |  Register Free
Airport Search:

Mount Sterling-Montgomery County Airport
(KIOB)

Mount Sterling-Montgomery County Airport Diagram
No Airport Diagram Available

FAA data valid effective September 18, 2014 - November 13, 2014 (unless otherwise noted).

 
 
 
 
 
 
 
 
 
 
 
 
 
 

Current Aviation Weather for Mount Sterling-Montgomery County Airport (KIOB)

The most recent METAR observation for KIOB was updated at: 0210
METAR Summary (Translated METAR)
KIOB
250155Z AUTO 24003KT 10SM CLR 07/05 A3008 RMK AO2
KSYM
250150Z AUTO 17005KT 10SM CLR 08/05 A3009 RMK AO2
(20.8 nm NE from KIOB)
KLEX
250154Z 17003KT 10SM CLR 09/06 A3007 RMK AO2 SLP183 T00940056
(29.6 nm SW from KIOB)
TAF Summary (Translated TAF)
KSYM
(20.8 nm NE from KIOB)
151741Z 1518/1618 VRB03KT P6SM SCT045 FM160900 00000KT 3SM BR SCT030 FM161300 22004KT P6SM SKC
KLEX
(29.6 nm SW from KIOB)
241735Z 2418/2518 26003KT P6SM SCT035 FM250100 VRB03KT P6SM FEW020 FM251500 25006KT P6SM BKN035
  Airport Weather Conditions for KIOB

 Current Weather at IOB
45° F
Fair
Southwest winds at 3.5 mph
IOB NOAA Radar

Pressure: 30.08 in
Humidity: 87%
Wind: Southwest at 3.5 MPH (3 KT)
Dew Point: 41.0°F
Visibility: 10.00 mi


Airport Weather Forecast for KIOB

Translated METAR and TAF for KIOB
Translated METAR for KIOB (0246 UTC 25 October 2014)
found at http://aviationweather.gov/adds/metars/
 
METAR text: KIOB 250235Z AUTO 00000KT 10SM CLR 07/05 A3008 RMK AO2
Conditions at: KIOB (MOUNT STERLING , KY, US) observed 0235 UTC 25 October 2014
Temperature: 7.0°C (45°F)
Dewpoint: 5.0°C (41°F) [RH = 87%]
Pressure (altimeter): 30.08 inches Hg (1018.7 mb)
Winds: calm
Visibility: 10 or more miles (16+ km)
Ceiling: at least 12,000 feet AGL
Clouds: sky clear below 12,000 feet AGL
Weather: automated observation with no human augmentation;
there may or may not be significant weather present at this time
Translated TAF for KIOB

There is no translated TAF available for this airport

Find All Airport Services Find A Hotel Find A Rental Car Find A Golf Course Find A Restaurant $100 Hamburger



FBO's on the Field
FBO Company Facility Photos Services Transportation Aviation Fuel Prices: Prices include tax
Catering Weather Repair Courtesy Rental Type 100LL JetA JetA+ MOGAS 8087
 
Kentucky Airmotive Inc

This FBO has not yet been rated
FS:Shell
Last Updated: Oct-24
Login to update fuel prices
SS:
Contact Kentucky Airmotive IncMore FBO Information
 
Add another FBO Facility Photos Catering Weather Repair Courtesy Rental Type 100LL JetA JetA+ MOGAS 8087
Services Transportation Aviation Fuel Prices: Prices include tax


model-print
model-print
model-print
model-print